Marston, Missouri
Current Conditions -  °F | °C
As of 5:55 PM on Wednesday 22 Oct 2014 (Local Time) from KUCY Reporting Station
Clear Clear  
Wind Chill: 59°   Ceiling: Unl
Heat Index: 59°   Visibility: 10mi
Dew Point: 41°   Wind: 5mph
Humidity: 51%   Direction: 60°ENE
Pressure: 30.19"   Gusts: NA
Location:  36.52°N, 89.61°W
Report Text: KUCY 222255Z AUTO 06004KT 10SM CLR 15/05 A3019 RMK
Loading
Personal Weather Stations






























Interactive Weather Map New forecast layout! Learn more

10-Day Weather Forecast

Advertisements
Track Severe Weather on mobile